createdAt,value
2019-02-09T00:01:46.793Z,6.27
2019-02-09T00:04:13.242Z,6.67
2019-02-09T00:06:39.652Z,6.27
2019-02-09T00:09:06.063Z,6.07
2019-02-09T00:11:32.516Z,6.27
2019-02-09T00:13:58.928Z,5.90
2019-02-09T00:16:25.695Z,6.20
2019-02-09T00:18:52.108Z,5.70
2019-02-09T00:21:18.556Z,6.50
2019-02-09T00:23:45.008Z,5.80
2019-02-09T00:26:11.427Z,6.20
2019-02-09T00:28:37.885Z,5.73
2019-02-09T00:31:04.327Z,6.17
2019-02-09T00:33:30.740Z,5.50
2019-02-09T00:35:57.151Z,5.50
2019-02-09T00:38:23.595Z,5.40
2019-02-09T00:40:50.007Z,6.23
2019-02-09T00:43:16.456Z,5.87
2019-02-09T00:45:42.904Z,5.57
2019-02-09T00:48:09.623Z,5.87
2019-02-09T00:50:36.032Z,5.77
2019-02-09T00:53:02.787Z,6.53
2019-02-09T00:55:29.528Z,5.70
2019-02-09T00:57:55.942Z,5.47
2019-02-09T01:00:26.706Z,5.50
2019-02-09T01:02:54.256Z,5.70
2019-02-09T01:05:22.571Z,6.50
2019-02-09T01:07:49.267Z,6.23
2019-02-09T01:10:16.619Z,6.50
2019-02-09T01:12:43.031Z,5.93
2019-02-09T01:15:11.352Z,6.33
2019-02-09T01:17:37.788Z,5.70
2019-02-09T01:20:08.877Z,6.20
2019-02-09T01:22:35.347Z,6.60
2019-02-09T01:25:02.594Z,6.23
2019-02-09T01:27:29.005Z,6.80
2019-02-09T01:30:02.283Z,6.50
2019-02-09T01:32:23.777Z,6.13
2019-02-09T01:34:50.223Z,6.40
2019-02-09T01:37:16.631Z,6.23
2019-02-09T01:39:43.043Z,6.93
2019-02-09T01:42:09.765Z,6.00
2019-02-09T01:44:36.548Z,6.67
2019-02-09T01:47:03.244Z,6.33
2019-02-09T01:49:29.671Z,6.63
2019-02-09T01:51:56.103Z,6.30
2019-02-09T01:54:22.519Z,6.77
2019-02-09T01:56:49.275Z,6.20
2019-02-09T01:59:15.692Z,6.30
2019-02-09T02:01:42.139Z,6.53
2019-02-09T02:04:08.555Z,5.90
2019-02-09T02:06:34.967Z,6.77
2019-02-09T02:09:01.413Z,6.00
2019-02-09T02:11:27.820Z,5.93
2019-02-09T02:13:54.231Z,6.17
2019-02-09T02:16:20.939Z,7.07
2019-02-09T02:18:47.360Z,6.37
2019-02-09T02:21:13.804Z,6.00
2019-02-09T02:23:40.256Z,6.20
2019-02-09T02:26:06.779Z,5.50
2019-02-09T02:28:34.162Z,5.57
2019-02-09T02:31:00.647Z,5.63
2019-02-09T02:33:27.319Z,6.30
2019-02-09T02:35:54.036Z,5.73
2019-02-09T02:38:20.452Z,6.67
2019-02-09T02:40:46.927Z,5.87
2019-02-09T02:43:13.343Z,5.93
2019-02-09T02:45:39.752Z,5.60
2019-02-09T02:48:06.516Z,6.03
2019-02-09T02:50:33.025Z,5.97
2019-02-09T02:52:59.556Z,6.10
2019-02-09T02:55:28.920Z,6.50
2019-02-09T02:57:55.616Z,6.03
2019-02-09T03:00:31.620Z,5.80
2019-02-09T03:02:52.280Z,5.57
2019-02-09T03:05:20.392Z,5.63
2019-02-09T03:07:46.801Z,6.20
2019-02-09T03:10:14.553Z,5.93
2019-02-09T03:12:41.281Z,5.70
2019-02-09T03:15:09.592Z,5.93
2019-02-09T03:17:36.288Z,5.07
2019-02-09T03:20:04.199Z,5.40
2019-02-09T03:22:30.640Z,5.37
2019-02-09T03:24:57.128Z,5.80
2019-02-09T03:27:23.535Z,5.70
2019-02-09T03:29:49.947Z,5.57
2019-02-09T03:32:16.396Z,5.60
2019-02-09T03:34:43.157Z,4.73
2019-02-09T03:37:09.567Z,5.37
2019-02-09T03:39:36.323Z,5.00
2019-02-09T03:42:03.035Z,5.10
2019-02-09T03:44:29.704Z,4.57
2019-02-09T03:46:56.148Z,4.63
2019-02-09T03:49:22.568Z,4.93
2019-02-09T03:51:48.988Z,4.43
2019-02-09T03:54:15.433Z,4.83
2019-02-09T03:56:41.844Z,5.00
2019-02-09T03:59:08.297Z,5.03
2019-02-09T04:01:34.743Z,4.93
2019-02-09T04:04:01.161Z,4.90
2019-02-09T04:06:27.628Z,4.97
2019-02-09T04:08:54.125Z,4.67
2019-02-09T04:11:20.537Z,5.17
2019-02-09T04:13:46.943Z,5.37
2019-02-09T04:16:13.393Z,5.00
2019-02-09T04:18:39.803Z,4.60
2019-02-09T04:21:06.215Z,5.23
2019-02-09T04:23:32.923Z,5.30
2019-02-09T04:25:59.378Z,5.13
2019-02-09T04:28:25.791Z,4.60
2019-02-09T04:30:52.240Z,5.20
2019-02-09T04:33:18.659Z,5.13
2019-02-09T04:35:45.391Z,5.43
2019-02-09T04:38:12.148Z,5.00
2019-02-09T04:40:38.873Z,5.40
2019-02-09T04:43:05.607Z,4.40
2019-02-09T04:45:32.024Z,5.90
2019-02-09T04:47:58.455Z,6.20
2019-02-09T04:50:24.927Z,5.10
2019-02-09T04:52:52.133Z,4.90
2019-02-09T04:55:20.497Z,5.30
2019-02-09T04:57:46.956Z,5.23
2019-02-09T05:00:15.277Z,5.47
2019-02-09T05:02:41.765Z,4.70
2019-02-09T05:05:08.172Z,5.17
2019-02-09T05:07:34.579Z,4.70
2019-02-09T05:10:01.024Z,4.87
2019-02-09T05:12:27.436Z,5.10
2019-02-09T05:14:53.857Z,4.80
2019-02-09T05:17:20.305Z,5.00
2019-02-09T05:19:47.009Z,5.50
2019-02-09T05:22:13.445Z,5.47
2019-02-09T05:24:39.892Z,4.50
2019-02-09T05:27:06.736Z,5.07
2019-02-09T05:29:33.215Z,4.77
2019-02-09T05:31:59.624Z,4.07
2019-02-09T05:34:26.324Z,4.50
2019-02-09T05:36:52.792Z,4.60
2019-02-09T05:39:19.596Z,4.67
2019-02-09T05:41:46.005Z,4.60
2019-02-09T05:44:12.763Z,4.00
2019-02-09T05:46:39.217Z,4.10
2019-02-09T05:49:05.620Z,4.60
2019-02-09T05:51:32.068Z,3.80
2019-02-09T05:53:58.518Z,3.93
2019-02-09T05:56:24.932Z,3.80
2019-02-09T05:58:51.372Z,4.40
2019-02-09T06:01:18.095Z,4.10
2019-02-09T06:03:44.512Z,3.93
2019-02-09T06:06:10.932Z,3.77
2019-02-09T06:08:37.414Z,3.60
2019-02-09T06:11:03.811Z,4.13
2019-02-09T06:13:30.563Z,3.63
2019-02-09T06:15:56.980Z,3.50
2019-02-09T06:18:23.393Z,3.70
2019-02-09T06:20:49.839Z,4.50
2019-02-09T06:23:16.509Z,4.33
2019-02-09T06:25:42.962Z,3.60
2019-02-09T06:28:09.416Z,3.97
2019-02-09T06:30:35.825Z,3.50
2019-02-09T06:33:02.239Z,4.10
2019-02-09T06:35:28.683Z,3.77
2019-02-09T06:37:55.405Z,3.50
2019-02-09T06:40:23.156Z,3.60
2019-02-09T06:42:49.903Z,3.73
2019-02-09T06:45:18.015Z,3.03
2019-02-09T06:47:44.463Z,3.17
2019-02-09T06:50:12.784Z,3.10
2019-02-09T06:52:39.233Z,3.50
2019-02-09T06:55:07.899Z,2.63
2019-02-09T06:57:34.311Z,3.13
2019-02-09T07:00:00.732Z,2.90
2019-02-09T07:02:27.179Z,2.60
2019-02-09T07:04:54.036Z,3.30
2019-02-09T07:07:20.457Z,2.87
2019-02-09T07:09:46.903Z,2.73
2019-02-09T07:12:13.345Z,2.80
2019-02-09T07:14:39.876Z,2.90
2019-02-09T07:17:06.292Z,2.67
2019-02-09T07:19:32.703Z,2.27
2019-02-09T07:21:59.151Z,2.43
2019-02-09T07:24:25.607Z,2.37
2019-02-09T07:26:52.072Z,2.40
2019-02-09T07:29:18.515Z,2.33
2019-02-09T07:31:44.932Z,2.90
2019-02-09T07:34:11.340Z,2.50
2019-02-09T07:36:37.826Z,2.33
2019-02-09T07:39:05.636Z,2.70
2019-02-09T07:41:32.364Z,2.40
2019-02-09T07:43:58.817Z,2.60
2019-02-09T07:46:25.240Z,2.60
2019-02-09T07:48:51.655Z,2.50
2019-02-09T07:51:18.099Z,2.33
2019-02-09T07:53:44.525Z,2.00
2019-02-09T07:56:10.948Z,2.63
2019-02-09T07:58:37.396Z,2.07
2019-02-09T08:01:03.820Z,2.17
2019-02-09T08:03:30.575Z,2.20
2019-02-09T08:05:56.994Z,1.90
2019-02-09T08:08:23.403Z,2.70
2019-02-09T08:10:50.164Z,2.50
2019-02-09T08:13:16.899Z,2.10
2019-02-09T08:15:43.347Z,2.30
2019-02-09T08:18:09.759Z,1.80
2019-02-09T08:20:36.177Z,1.63
2019-02-09T08:23:07.530Z,1.70
2019-02-09T08:25:35.339Z,2.07
2019-02-09T08:28:02.156Z,1.90
2019-02-09T08:30:33.709Z,2.00
2019-02-09T08:33:00.124Z,2.00
2019-02-09T08:35:26.876Z,2.13
2019-02-09T08:37:54.023Z,2.07
2019-02-09T08:40:20.468Z,1.80
2019-02-09T08:42:46.880Z,1.70
2019-02-09T08:45:18.440Z,1.93
2019-02-09T08:47:44.937Z,1.80
2019-02-09T08:50:16.424Z,1.70
2019-02-09T08:52:42.871Z,1.90
2019-02-09T08:55:09.294Z,1.90
2019-02-09T08:57:35.707Z,1.40
2019-02-09T09:00:05.617Z,1.63
2019-02-09T09:02:32.687Z,1.70
2019-02-09T09:04:59.424Z,1.40
2019-02-09T09:07:26.160Z,1.53
2019-02-09T09:09:52.904Z,1.80
2019-02-09T09:12:19.317Z,1.90
2019-02-09T09:14:45.763Z,1.70
2019-02-09T09:17:12.503Z,1.70
2019-02-09T09:19:38.920Z,1.50
2019-02-09T09:22:05.367Z,1.63
2019-02-09T09:24:31.785Z,1.90
2019-02-09T09:26:58.195Z,2.00
2019-02-09T09:29:24.972Z,1.53
2019-02-09T09:31:51.391Z,1.77
2019-02-09T09:34:17.803Z,1.70
2019-02-09T09:36:44.575Z,1.27
2019-02-09T09:39:11.318Z,1.80
2019-02-09T09:41:37.760Z,1.90
2019-02-09T09:44:04.185Z,1.93
2019-02-09T09:46:30.591Z,2.03
2019-02-09T09:48:57.036Z,1.87
2019-02-09T09:51:23.779Z,1.87
2019-02-09T09:53:50.236Z,1.90
2019-02-09T09:56:16.649Z,1.87
2019-02-09T09:58:43.096Z,1.80
2019-02-09T10:01:09.507Z,1.80
2019-02-09T10:03:35.923Z,2.10
2019-02-09T10:06:02.685Z,1.93
2019-02-09T10:08:29.100Z,2.03
2019-02-09T10:10:55.516Z,2.03
2019-02-09T10:13:22.283Z,2.20
2019-02-09T10:15:48.695Z,1.87
2019-02-09T10:18:15.361Z,1.73
2019-02-09T10:20:41.804Z,1.80
2019-02-09T10:23:08.255Z,1.70
2019-02-09T10:25:34.962Z,2.27
2019-02-09T10:28:01.720Z,1.90
2019-02-09T10:30:30.107Z,1.80
2019-02-09T10:32:56.534Z,1.80
2019-02-09T10:35:22.948Z,2.13
2019-02-09T10:37:49.400Z,2.10
2019-02-09T10:40:17.752Z,2.10
2019-02-09T10:42:44.492Z,1.80
2019-02-09T10:45:21.979Z,2.10
2019-02-09T10:47:48.723Z,1.97
2019-02-09T10:50:19.947Z,2.17
2019-02-09T10:52:46.724Z,2.03
2019-02-09T10:55:13.190Z,2.10
2019-02-09T10:57:39.591Z,1.97
2019-02-09T11:00:07.916Z,2.60
2019-02-09T11:02:34.363Z,2.00
2019-02-09T11:05:01.124Z,2.07
2019-02-09T11:07:27.552Z,2.00
2019-02-09T11:09:54.289Z,1.90
2019-02-09T11:12:21.708Z,2.30
2019-02-09T11:14:48.119Z,1.93
2019-02-09T11:17:14.816Z,1.90
2019-02-09T11:19:41.231Z,2.10
2019-02-09T11:22:07.679Z,2.40
2019-02-09T11:24:34.099Z,1.80
2019-02-09T11:27:00.508Z,1.87
2019-02-09T11:29:26.990Z,1.80
2019-02-09T11:31:53.715Z,2.23
2019-02-09T11:34:20.456Z,2.07
2019-02-09T11:36:46.871Z,1.80
2019-02-09T11:39:13.283Z,1.90
2019-02-09T11:41:39.737Z,2.20
2019-02-09T11:44:06.512Z,1.90
2019-02-09T11:46:32.955Z,2.10
2019-02-09T11:48:59.371Z,2.30
2019-02-09T11:51:25.789Z,2.70
2019-02-09T11:53:52.231Z,1.90
2019-02-09T11:56:18.643Z,2.10
2019-02-09T11:58:45.100Z,2.00
2019-02-09T12:01:11.518Z,2.00
2019-02-09T12:03:37.961Z,1.77
2019-02-09T12:06:04.371Z,1.87
2019-02-09T12:08:30.785Z,2.07
2019-02-09T12:10:57.232Z,1.83
2019-02-09T12:13:23.983Z,2.17
2019-02-09T12:15:50.400Z,1.80
2019-02-09T12:18:16.852Z,1.73
2019-02-09T12:20:43.268Z,1.83
2019-02-09T12:23:09.678Z,2.20
2019-02-09T12:25:36.785Z,2.00
2019-02-09T12:28:04.139Z,1.60
2019-02-09T12:30:32.804Z,1.80
2019-02-09T12:32:59.260Z,1.60
2019-02-09T12:35:25.663Z,2.20
2019-02-09T12:37:52.075Z,1.90
2019-02-09T12:40:20.779Z,2.03
2019-02-09T12:42:47.801Z,1.90
2019-02-09T12:45:16.407Z,1.63
2019-02-09T12:47:42.855Z,1.60
2019-02-09T12:50:11.425Z,2.10
2019-02-09T12:52:37.843Z,1.67
2019-02-09T12:55:05.188Z,2.00
2019-02-09T12:57:31.611Z,1.73
2019-02-09T12:59:58.020Z,2.20
2019-02-09T13:02:24.468Z,1.80
2019-02-09T13:04:50.885Z,2.20
2019-02-09T13:07:18.087Z,1.87
2019-02-09T13:09:44.562Z,1.90
2019-02-09T13:12:11.007Z,2.03
2019-02-09T13:14:37.419Z,2.15
2019-02-09T13:17:39.039Z,2.20
2019-02-09T13:20:07.624Z,1.90
2019-02-09T13:22:34.364Z,1.87
2019-02-09T13:25:00.796Z,2.40
2019-02-09T13:27:27.128Z,2.53
2019-02-09T13:29:53.456Z,2.47
2019-02-09T13:32:19.896Z,2.53
2019-02-09T13:34:45.935Z,2.20
2019-02-09T13:37:12.016Z,2.60
2019-02-09T13:39:38.065Z,3.10
2019-02-09T13:42:04.109Z,2.03
2019-02-09T13:44:30.517Z,2.27
2019-02-09T13:46:57.261Z,2.10
2019-02-09T13:49:23.991Z,1.80
2019-02-09T13:51:50.281Z,2.17
2019-02-09T13:54:16.328Z,2.20
2019-02-09T13:56:42.408Z,1.77
2019-02-09T13:59:08.455Z,2.20
2019-02-09T14:01:34.504Z,2.10
2019-02-09T14:04:00.580Z,2.00
2019-02-09T14:06:26.624Z,1.93
2019-02-09T14:08:53.315Z,1.87
2019-02-09T14:11:19.736Z,3.63
2019-02-09T14:13:45.815Z,2.17
2019-02-09T14:16:12.240Z,2.20
2019-02-09T14:18:38.656Z,2.13
2019-02-09T14:21:05.355Z,2.20
2019-02-09T14:23:31.406Z,1.97
2019-02-09T14:25:57.459Z,2.40
2019-02-09T14:28:25.437Z,2.30
2019-02-09T14:30:51.488Z,2.20
2019-02-09T14:33:17.564Z,2.37
2019-02-09T14:35:43.643Z,2.50
2019-02-09T14:38:09.971Z,2.07
2019-02-09T14:40:36.495Z,1.87
2019-02-09T14:43:03.939Z,2.17
2019-02-09T14:45:31.460Z,2.17
2019-02-09T14:47:57.901Z,2.30
2019-02-09T14:50:24.416Z,2.03
2019-02-09T14:52:50.495Z,2.53
2019-02-09T14:55:26.160Z,2.60
2019-02-09T14:57:52.236Z,3.30
2019-02-09T15:00:27.506Z,2.50
2019-02-09T15:02:54.152Z,1.90
2019-02-09T15:05:20.509Z,2.50
2019-02-09T15:07:47.228Z,2.20
2019-02-09T15:10:16.328Z,2.90
2019-02-09T15:12:42.656Z,2.17
2019-02-09T15:15:11.007Z,2.60
2019-02-09T15:17:37.059Z,2.50
2019-02-09T15:20:13.215Z,2.30
2019-02-09T15:22:39.659Z,2.10
2019-02-09T15:25:07.071Z,2.13
2019-02-09T15:27:33.518Z,1.93
2019-02-09T15:29:59.568Z,2.97
2019-02-09T15:32:25.643Z,2.00
2019-02-09T15:34:52.013Z,2.10
2019-02-09T15:37:18.064Z,2.17
2019-02-09T15:39:44.107Z,2.60
2019-02-09T15:42:10.188Z,2.27
2019-02-09T15:44:36.535Z,2.87
2019-02-09T15:47:02.580Z,2.30
2019-02-09T15:49:28.656Z,1.70
2019-02-09T15:51:55.068Z,2.20
2019-02-09T15:54:21.474Z,2.13
2019-02-09T15:56:47.855Z,2.20
2019-02-09T15:59:15.563Z,1.93
2019-02-09T16:01:42.908Z,1.90
2019-02-09T16:04:09.614Z,2.17
2019-02-09T16:06:35.661Z,2.23
2019-02-09T16:09:04.111Z,2.40
2019-02-09T16:11:30.527Z,2.00
2019-02-09T16:13:56.615Z,2.00
2019-02-09T16:16:22.999Z,2.23
2019-02-09T16:18:49.048Z,2.23
2019-02-09T16:21:15.093Z,2.87
2019-02-09T16:23:41.476Z,2.40
2019-02-09T16:26:08.016Z,2.80
2019-02-09T16:28:34.463Z,2.40
2019-02-09T16:31:00.886Z,2.73
2019-02-09T16:33:27.341Z,2.63
2019-02-09T16:35:53.784Z,3.53
2019-02-09T16:38:20.171Z,3.77
2019-02-09T16:40:46.589Z,3.20
2019-02-09T16:43:12.932Z,2.73
2019-02-09T16:45:39.672Z,2.90
2019-02-09T16:48:08.155Z,3.63
2019-02-09T16:50:34.899Z,3.00
2019-02-09T16:53:00.974Z,2.80
2019-02-09T16:55:27.348Z,2.80
2019-02-09T16:57:53.791Z,3.30
2019-02-09T17:00:32.605Z,3.70
2019-02-09T17:02:58.788Z,3.30
2019-02-09T17:05:25.203Z,3.40
2019-02-09T17:07:51.591Z,2.63
2019-02-09T17:10:19.082Z,3.00
2019-02-09T17:12:45.533Z,2.77
2019-02-09T17:15:16.869Z,4.17
2019-02-09T17:17:42.912Z,3.00
2019-02-09T17:20:10.991Z,2.90
2019-02-09T17:22:37.403Z,3.37
2019-02-09T17:25:06.885Z,2.70
2019-02-09T17:27:32.932Z,3.00
2019-02-09T17:29:58.968Z,3.13
2019-02-09T17:32:25.421Z,2.80
2019-02-09T17:34:51.770Z,3.63
2019-02-09T17:37:17.852Z,3.80
2019-02-09T17:39:44.527Z,2.80
2019-02-09T17:42:10.572Z,3.40
2019-02-09T17:44:36.676Z,3.10
2019-02-09T17:47:02.719Z,3.37
2019-02-09T17:49:29.167Z,2.40
2019-02-09T17:51:55.211Z,3.30
2019-02-09T17:54:21.255Z,3.63
2019-02-09T17:56:48.018Z,3.00
2019-02-09T17:59:14.064Z,3.80
2019-02-09T18:01:40.520Z,3.73
2019-02-09T18:04:06.563Z,3.40
2019-02-09T18:06:32.937Z,3.07
2019-02-09T18:08:59.389Z,3.10
2019-02-09T18:11:25.431Z,3.43
2019-02-09T18:13:51.816Z,3.20
2019-02-09T18:16:17.895Z,3.97
2019-02-09T18:18:44.339Z,3.20
2019-02-09T18:21:10.413Z,3.63
2019-02-09T18:23:36.729Z,4.00
2019-02-09T18:26:03.976Z,3.87
2019-02-09T18:28:30.029Z,3.80
2019-02-09T18:30:56.172Z,3.10
2019-02-09T18:33:22.271Z,3.37
2019-02-09T18:35:48.376Z,3.53
2019-02-09T18:38:14.821Z,3.23
2019-02-09T18:40:41.237Z,3.57
2019-02-09T18:43:07.317Z,3.53
2019-02-09T18:45:33.728Z,3.13
2019-02-09T18:47:59.771Z,4.17
2019-02-09T18:50:29.221Z,3.90
2019-02-09T18:52:57.378Z,4.37
2019-02-09T18:55:25.919Z,3.83
2019-02-09T18:57:52.499Z,2.90
2019-02-09T19:00:31.431Z,3.87
2019-02-09T19:02:57.532Z,3.00
2019-02-09T19:05:23.576Z,3.20
2019-02-09T19:07:49.668Z,3.20
2019-02-09T19:10:25.268Z,3.27
2019-02-09T19:12:51.452Z,3.70
2019-02-09T19:15:20.896Z,3.50
2019-02-09T19:17:46.943Z,3.70
2019-02-09T19:20:19.861Z,3.70
2019-02-09T19:22:45.903Z,3.87
2019-02-09T19:25:15.787Z,3.60
2019-02-09T19:27:42.156Z,3.97
2019-02-09T19:30:10.471Z,3.27
2019-02-09T19:32:36.547Z,3.43
2019-02-09T19:35:11.935Z,3.07
2019-02-09T19:37:33.807Z,3.80
2019-02-09T19:40:00.248Z,3.70
2019-02-09T19:42:28.020Z,4.00
2019-02-09T19:44:54.359Z,3.60
2019-02-09T19:47:20.779Z,3.90
2019-02-09T19:49:46.823Z,3.90
2019-02-09T19:52:12.926Z,3.80
2019-02-09T19:54:39.335Z,3.93
2019-02-09T19:57:05.788Z,3.70
2019-02-09T19:59:31.845Z,4.10
2019-02-09T20:01:58.248Z,3.40
2019-02-09T20:04:25.093Z,3.57
2019-02-09T20:06:51.136Z,3.90
2019-02-09T20:09:17.231Z,3.80
2019-02-09T20:11:43.573Z,3.23
2019-02-09T20:14:09.660Z,3.23
2019-02-09T20:16:36.067Z,3.97
2019-02-09T20:19:02.359Z,3.67
2019-02-09T20:21:28.440Z,3.90
2019-02-09T20:23:54.493Z,3.77
2019-02-09T20:26:20.951Z,3.90
2019-02-09T20:28:46.991Z,3.17
2019-02-09T20:31:13.292Z,3.93
2019-02-09T20:33:39.637Z,3.60
2019-02-09T20:36:05.722Z,3.90
2019-02-09T20:38:31.807Z,3.43
2019-02-09T20:41:01.804Z,3.50
2019-02-09T20:43:28.211Z,3.50
2019-02-09T20:45:54.545Z,3.53
2019-02-09T20:48:20.955Z,3.23
2019-02-09T20:50:47.405Z,3.53
2019-02-09T20:53:13.861Z,3.37
2019-02-09T20:55:39.899Z,3.93
2019-02-09T20:58:07.515Z,3.40
2019-02-09T21:00:33.868Z,3.47
2019-02-09T21:02:59.911Z,3.77
2019-02-09T21:05:26.614Z,3.70
2019-02-09T21:07:53.486Z,4.03
2019-02-09T21:10:26.688Z,3.57
2019-02-09T21:12:54.492Z,4.00
2019-02-09T21:15:27.392Z,3.60
2019-02-09T21:17:54.542Z,3.70
2019-02-09T21:20:20.996Z,4.37
2019-02-09T21:22:47.303Z,4.40
2019-02-09T21:25:32.223Z,3.93
2019-02-09T21:27:58.508Z,3.70
2019-02-09T21:30:26.469Z,4.57
2019-02-09T21:32:52.515Z,4.40
2019-02-09T21:35:20.024Z,4.40
2019-02-09T21:37:46.499Z,3.87
2019-02-09T21:40:24.157Z,4.40
2019-02-09T21:42:50.240Z,4.60
2019-02-09T21:45:18.377Z,4.40
2019-02-09T21:47:45.107Z,4.40
2019-02-09T21:50:15.334Z,4.20
2019-02-09T21:52:41.748Z,4.60
2019-02-09T21:55:12.054Z,4.00
2019-02-09T21:57:38.587Z,4.20
2019-02-09T22:00:11.712Z,4.90
2019-02-09T22:02:42.667Z,4.57
2019-02-09T22:05:09.036Z,4.43
2019-02-09T22:07:35.116Z,4.27
2019-02-09T22:10:01.841Z,3.80
2019-02-09T22:12:28.249Z,4.60
2019-02-09T22:14:55.061Z,4.80
2019-02-09T22:17:21.320Z,4.23
2019-02-09T22:19:47.738Z,4.20
2019-02-09T22:22:14.209Z,3.97
2019-02-09T22:24:40.261Z,4.07
2019-02-09T22:27:06.684Z,4.00
2019-02-09T22:29:33.543Z,4.53
2019-02-09T22:31:59.588Z,4.50
2019-02-09T22:34:25.673Z,4.30
2019-02-09T22:36:52.104Z,3.40
2019-02-09T22:39:18.235Z,4.03
2019-02-09T22:41:48.923Z,4.80
2019-02-09T22:44:12.256Z,3.97
2019-02-09T22:46:38.632Z,4.00
2019-02-09T22:49:05.382Z,4.67
2019-02-09T22:51:31.823Z,3.60
2019-02-09T22:53:57.864Z,4.13
2019-02-09T22:56:24.161Z,3.60
2019-02-09T22:58:50.489Z,3.93
2019-02-09T23:01:26.307Z,4.10
2019-02-09T23:03:54.663Z,3.60
2019-02-09T23:06:27.365Z,4.20
2019-02-09T23:08:57.004Z,4.43
2019-02-09T23:11:23.419Z,4.40
2019-02-09T23:13:49.467Z,3.63
2019-02-09T23:16:15.543Z,4.30
2019-02-09T23:18:41.595Z,4.10
2019-02-09T23:21:08.347Z,4.37
2019-02-09T23:23:34.392Z,4.10
2019-02-09T23:26:01.109Z,3.80
2019-02-09T23:28:27.187Z,3.60
2019-02-09T23:30:53.236Z,4.60
2019-02-09T23:33:19.590Z,4.20
2019-02-09T23:35:45.668Z,4.30
2019-02-09T23:38:11.747Z,3.93
2019-02-09T23:40:38.163Z,3.83
2019-02-09T23:43:04.235Z,3.70
2019-02-09T23:45:30.291Z,4.40
2019-02-09T23:47:56.401Z,4.00
2019-02-09T23:50:23.180Z,4.30
2019-02-09T23:52:49.504Z,3.47
2019-02-09T23:55:15.561Z,3.40
2019-02-09T23:57:41.999Z,3.87
